Flight Track Log - Related Links

Times and Time Zones

All times are in EDT time to prevent confusion due to time zone crossing. See the C-GMOT flight status page for this flight to view local times or setup timezone preferences in your user account.

Time Position Orientation Groundspeed Altitude Reporting Facility
EDT Latitude Longitude Course Direction KTS MPH feet Rate Location/Type
Wed 04:29:00 PM 45.5167 -73.7167 298° West 100 115 2,300  Level Montreal Center
Wed 04:30:00 PM 45.5167 -73.7667 270° West 120 138 3,100 800 Climbing Montreal Center
Wed 04:31:00 PM 45.5167 -73.8167 270° West 130 150 3,900 800 Climbing Montreal Center
Wed 04:32:00 PM 45.5167 -73.8667 270° West 130 150 4,700 600 Climbing Montreal Center
Wed 04:33:00 PM 45.5945 -74.1016 298° West  Level FlightAware
Wed 04:33:00 PM 45.5167 -73.9333 270° West 140 161 5,100  Level Montreal Center
Wed 04:34:00 PM 45.5167 -73.9833 270° West 140 161 5,800 650 Climbing Montreal Center
Wed 04:35:00 PM 45.5167 -74.0333 270° West 140 161 6,400 650 Climbing Montreal Center
Wed 04:36:00 PM 45.5167 -74.1000 270° West 150 173 7,100 700 Climbing Montreal Center
Wed 04:37:00 PM 45.5167 -74.1500 270° West 140 161 7,800 500 Climbing Montreal Center
Wed 04:38:00 PM 45.5167 -74.2000 270° West 130 150 8,100 100 Climbing Montreal Center
Wed 04:39:00 PM 45.5167 -74.2500 270° West 140 161 8,000  Descending Montreal Center
Wed 04:40:00 PM 45.5167 -74.3167 270° West 150 173 8,100 50 Climbing Montreal Center
Wed 04:41:00 PM 45.5167 -74.3833 270° West 150 173 8,100 -50 Level Montreal Center
Wed 04:42:00 PM 45.5000 -74.4333 245° Southwest 150 173 8,000  Descending Montreal Center
Wed 04:43:00 PM 45.5000 -74.5167 270° West 150 173 8,100 50 Climbing Montreal Center
Wed 04:44:00 PM 45.5000 -74.5500 270° West 150 173 8,100  Level Montreal Center
Wed 04:45:00 PM 45.4833 -74.6000 245° Southwest 150 173 8,100  Level Montreal Center
Wed 04:46:00 PM 45.4667 -74.6833 254° West 150 173 8,100  Level Montreal Center
Wed 04:47:00 PM 45.4667 -74.7333 270° West 150 173 8,100 -50 Level Montreal Center
Wed 04:48:00 PM 45.4500 -74.8000 250° West 150 173 8,000  Descending Montreal Center
Wed 04:49:00 PM 45.4500 -74.8500 270° West 150 173 8,100 50 Climbing Montreal Center
Wed 04:50:00 PM 45.4333 -74.9167 250° West 160 184 8,100  Level Montreal Center
Wed 04:51:00 PM 45.4333 -74.9667 270° West 150 173 8,100  Level Montreal Center
Wed 04:52:00 PM 45.4167 -75.0333 250° West 160 184 8,100  Level Montreal Center
Wed 04:53:00 PM 45.4167 -75.1167 270° West 160 184 8,100  Level Montreal Center
Wed 04:54:00 PM 45.4000 -75.1500 235° Southwest 160 184 8,100  Level Montreal Center
Wed 04:55:00 PM 45.3833 -75.2333 254° West 160 184 8,100  Level Montreal Center
Wed 04:56:00 PM 45.3833 -75.2833 270° West 160 184 8,100  Level Montreal Center
Wed 04:57:00 PM 45.3667 -75.3500 250° West 160 184 8,100  Level Montreal Center
Wed 04:58:00 PM 45.3667 -75.4000 270° West 160 184 8,100 -50 Level Montreal Center
Wed 04:59:00 PM 45.3500 -75.4667 250° West 150 173 8,000  Descending Montreal Center
Wed 05:00:00 PM 45.3500 -75.5167 270° West 150 173 8,100 50 Climbing Montreal Center
Wed 05:01:00 PM 45.3333 -75.5833 250° West 160 184 8,100  Level Montreal Center
Wed 05:02:00 PM 45.3333 -75.6333 270° West 160 184 8,100  Level Montreal Center
Wed 05:03:00 PM 45.3167 -75.7000 250° West 160 184 8,100  Level Montreal Center
Wed 05:04:00 PM 45.3000 -75.7500 245° Southwest 160 184 8,100  Level Montreal Center
Wed 05:05:00 PM 45.2833 -75.8333 254° West 150 173 8,100  Level Montreal Center
Wed 05:06:00 PM 45.2667 -75.8667 235° Southwest 160 184 8,100  Level Montreal Center
Wed 05:07:00 PM 45.2667 -75.9500 270° West 160 184 8,100  Level Montreal Center
Wed 05:08:00 PM 45.2667 -76.0000 270° West 160 184 8,100  Level Montreal Center
Wed 05:09:00 PM 45.2500 -76.0667 250° West 160 184 8,100  Level Montreal Center
Wed 05:10:00 PM 45.2500 -76.1333 270° West 160 184 8,100  Level Montreal Center
Wed 05:11:00 PM 45.2500 -76.1833 270° West 150 173 8,100  Level Montreal Center
Wed 05:12:00 PM 45.2333 -76.2333 245° Southwest 160 184 8,100  Level Montreal Center
Wed 05:13:00 PM 45.2167 -76.3000 250° West 160 184 8,100  Level Montreal Center
Wed 05:14:00 PM 45.1833 -76.3500 227° Southwest 160 184 8,100  Level Montreal Center
Wed 05:15:00 PM 45.1667 -76.4167 250° West 160 184 8,100  Level Montreal Center
Wed 05:16:00 PM 45.1500 -76.4667 245° Southwest 160 184 8,100  Level Montreal Center
Wed 05:17:00 PM 45.1333 -76.5167 245° Southwest 160 184 8,100  Level Montreal Center
Wed 05:17:24 PM 45.1167 -76.5167 180° South 160 184 8,100  Level Toronto Center
Wed 05:18:24 PM 45.1000 -76.5667 245° Southwest 160 184 8,100  Level Toronto Center
Wed 05:19:00 PM 45.0833 -76.6333 251° West 160 184 8,100  Level Montreal Center
Wed 05:20:00 PM 45.0667 -76.6833 245° Southwest 160 184 8,100  Level Montreal Center
Wed 05:21:00 PM 45.0333 -76.7500 235° Southwest 160 184 8,100  Level Montreal Center
Wed 05:22:00 PM 45.0167 -76.8000 245° Southwest 160 184 8,100  Level Montreal Center
Wed 05:23:00 PM 45.0000 -76.8500 245° Southwest 160 184 8,100  Level Montreal Center
Wed 05:24:00 PM 44.9833 -76.8833 235° Southwest 160 184 8,100  Level Montreal Center
Wed 05:24:24 PM 44.9667 -76.9000 215° Southwest 160 184 8,100  Level Toronto Center
Wed 05:25:24 PM 44.9500 -76.9500 245° Southwest 160 184 8,100  Level Toronto Center
Wed 05:26:24 PM 44.9333 -77.0000 245° Southwest 150 173 8,100  Level Toronto Center
Wed 05:27:24 PM 44.9000 -77.0500 227° Southwest 160 184 8,100  Level Toronto Center
Wed 05:28:24 PM 44.8833 -77.1167 251° West 160 184 8,100  Level Toronto Center
Wed 05:29:00 PM 44.8667 -77.1667 245° Southwest 150 173 8,100  Level Montreal Center
Wed 05:30:00 PM 44.8500 -77.2167 245° Southwest 160 184 8,100  Level Montreal Center
Wed 05:31:00 PM 44.8333 -77.2667 245° Southwest 160 184 8,100  Level Montreal Center
Wed 05:32:00 PM 44.8167 -77.3333 251° West 160 184 8,100  Level Montreal Center
Wed 05:33:00 PM 44.7833 -77.3833 227° Southwest 150 173 8,100  Level Montreal Center
Wed 05:34:00 PM 44.7667 -77.4333 245° Southwest 150 173 8,100  Level Montreal Center
Wed 05:35:00 PM 44.7500 -77.4833 245° Southwest 150 173 8,100  Level Montreal Center
Wed 05:36:00 PM 44.7333 -77.5500 251° West 150 173 8,100  Level Montreal Center
Wed 05:37:00 PM 44.7167 -77.6000 245° Southwest 150 173 8,100  Level Montreal Center
Wed 05:38:00 PM 44.6833 -77.6333 215° Southwest 150 173 8,100  Level Montreal Center
Wed 05:39:00 PM 44.6667 -77.6833 245° Southwest 150 173 8,100  Level Montreal Center
Wed 05:39:24 PM 44.6500 -77.6833 180° South 150 173 8,100  Level Toronto Center
Wed 05:40:24 PM 44.6333 -77.7333 245° Southwest 150 173 8,100  Level Toronto Center
Wed 05:41:00 PM 44.6167 -77.7833 245° Southwest 150 173 8,100  Level Montreal Center
Wed 05:42:00 PM 44.6000 -77.8500 251° West 150 173 8,100  Level Montreal Center
Wed 05:43:00 PM 44.5667 -77.9000 227° Southwest 150 173 8,100  Level Montreal Center
Wed 05:44:00 PM 44.5500 -77.9333 235° Southwest 150 173 8,100 -71 Level Montreal Center
Wed 05:44:24 PM 44.5500 -77.9167 90° East 150 173 8,000 -71 Descending Toronto Center
Wed 05:45:24 PM 44.5167 -78.0000 241° Southwest 150 173 8,000  Level Toronto Center
Wed 05:46:24 PM 44.5000 -78.0500 245° Southwest 150 173 8,000  Level Toronto Center
Wed 05:47:24 PM 44.4833 -78.0833 235° Southwest 150 173 8,000  Level Toronto Center
Wed 05:48:24 PM 44.4500 -78.1333 227° Southwest 150 173 8,000  Level Toronto Center
Wed 05:49:24 PM 44.4333 -78.1833 245° Southwest 150 173 8,000 -50 Level Toronto Center
Wed 05:50:24 PM 44.4167 -78.2333 245° Southwest 150 173 7,900 -200 Descending Toronto Center
Wed 05:51:24 PM 44.3833 -78.3000 235° Southwest 160 184 7,600 -400 Descending Toronto Center
Wed 05:52:24 PM 44.3667 -78.3500 245° Southwest 170 196 7,100 -500 Descending Toronto Center
Wed 05:53:24 PM 44.3333 -78.4167 235° Southwest 170 196 6,600 -500 Descending Toronto Center
Wed 05:54:24 PM 44.3167 -78.4667 245° Southwest 170 196 6,100 -500 Descending Toronto Center
Wed 05:55:24 PM 44.3000 -78.5333 251° West 180 207 5,600 -450 Descending Toronto Center
Wed 05:56:24 PM 44.2833 -78.5833 245° Southwest 180 207 5,200 -300 Descending Toronto Center
Wed 05:57:24 PM 44.2667 -78.6333 245° Southwest 170 196 5,000 -100 Descending Toronto Center
Wed 05:58:24 PM 44.2333 -78.7000 235° Southwest 170 196 5,000  Level Toronto Center
Wed 05:59:24 PM 44.2000 -78.7500 227° Southwest 170 196 5,000  Level Toronto Center
Wed 06:00:24 PM 44.1667 -78.8000 227° Southwest 170 196 5,000 -50 Level Toronto Center
Wed 06:01:24 PM 44.1500 -78.8500 245° Southwest 170 196 4,900  Descending Toronto Center
Wed 06:02:24 PM 44.1167 -78.9167 235° Southwest 170 196 5,000 50 Climbing Toronto Center
Wed 06:03:24 PM 44.0833 -78.9667 227° Southwest 170 196 5,000 38 Level Toronto Center
Wed 06:05:00 PM 44.0500 -79.0667 245° Southwest 170 196 5,100  Climbing Montreal Center
Wed 06:05:24 PM 44.0333 -79.0500 144° Southeast 170 196 5,000 -214 Descending Toronto Center
Wed 06:06:24 PM 44.0000 -79.1000 227° Southwest 160 184 4,800 -500 Descending Toronto Center
Wed 06:07:24 PM 43.9667 -79.1500 227° Southwest 170 196 4,000 -700 Descending Toronto Center
Wed 06:08:24 PM 43.9333 -79.2167 235° Southwest 160 184 3,400 -800 Descending Toronto Center
Wed 06:09:24 PM 43.9167 -79.2667 245° Southwest 150 173 2,400 -800 Descending Toronto Center
Wed 06:10:24 PM 43.9000 -79.3167 245° Southwest 140 161 1,800 -400 Descending Toronto Center
Wed 06:11:24 PM 43.9000 -79.3500 270° West 110 127 1,600 -300 Descending Toronto Center
Wed 06:12:24 PM 43.8667 -79.3500 180° South 90 104 1,200 -400 Descending Toronto Center
Wed 06:13:24 PM 43.8500 -79.3500 180° South 80 92 800 -400 Descending Toronto Center

Login

Don't have an account? Register now (free) for customized features, flight alerts, and more!